sensor_id;sensor_type;location;lat;lon;timestamp;temperature;humidity
20284;DHT22;10301;50.832;4.080;2023-04-03T00:00:41;3.80;93.90
20284;DHT22;10301;50.832;4.080;2023-04-03T00:03:06;3.50;95.20
20284;DHT22;10301;50.832;4.080;2023-04-03T00:05:32;3.40;96.40
20284;DHT22;10301;50.832;4.080;2023-04-03T00:07:58;3.40;97.50
20284;DHT22;10301;50.832;4.080;2023-04-03T00:10:24;3.30;97.40
20284;DHT22;10301;50.832;4.080;2023-04-03T00:12:49;3.10;98.20
20284;DHT22;10301;50.832;4.080;2023-04-03T00:15:15;3.00;99.30
20284;DHT22;10301;50.832;4.080;2023-04-03T00:17:41;3.10;99.90
20284;DHT22;10301;50.832;4.080;2023-04-03T00:20:07;3.30;99.80
20284;DHT22;10301;50.832;4.080;2023-04-03T00:22:33;3.50;99.00
20284;DHT22;10301;50.832;4.080;2023-04-03T00:24:59;3.50;98.10
20284;DHT22;10301;50.832;4.080;2023-04-03T00:27:25;3.60;97.00
20284;DHT22;10301;50.832;4.080;2023-04-03T00:29:50;3.80;95.90
20284;DHT22;10301;50.832;4.080;2023-04-03T00:32:16;3.90;94.50
20284;DHT22;10301;50.832;4.080;2023-04-03T00:34:41;3.60;93.60
20284;DHT22;10301;50.832;4.080;2023-04-03T00:37:07;3.30;95.10
20284;DHT22;10301;50.832;4.080;2023-04-03T00:39:33;3.10;96.90
20284;DHT22;10301;50.832;4.080;2023-04-03T00:41:59;3.00;98.20
20284;DHT22;10301;50.832;4.080;2023-04-03T00:47:00;2.80;99.90
20284;DHT22;10301;50.832;4.080;2023-04-03T00:49:26;2.70;99.90
20284;DHT22;10301;50.832;4.080;2023-04-03T00:51:52;2.70;99.90
20284;DHT22;10301;50.832;4.080;2023-04-03T00:54:18;2.70;99.90
20284;DHT22;10301;50.832;4.080;2023-04-03T00:56:44;3.00;99.90
20284;DHT22;10301;50.832;4.080;2023-04-03T00:59:15;3.20;99.90
20284;DHT22;10301;50.832;4.080;2023-04-03T01:01:42;3.30;99.60
20284;DHT22;10301;50.832;4.080;2023-04-03T01:04:37;3.20;98.50
20284;DHT22;10301;50.832;4.080;2023-04-03T01:07:41;3.10;98.30
20284;DHT22;10301;50.832;4.080;2023-04-03T01:10:06;3.10;97.90
20284;DHT22;10301;50.832;4.080;2023-04-03T01:12:38;3.10;97.10
20284;DHT22;10301;50.832;4.080;2023-04-03T01:15:09;3.10;96.70
20284;DHT22;10301;50.832;4.080;2023-04-03T01:17:45;3.00;96.80
20284;DHT22;10301;50.832;4.080;2023-04-03T01:25:42;3.10;95.90
20284;DHT22;10301;50.832;4.080;2023-04-03T01:28:11;3.10;96.10
20284;DHT22;10301;50.832;4.080;2023-04-03T01:33:30;3.10;95.80
20284;DHT22;10301;50.832;4.080;2023-04-03T01:35:56;3.20;95.30
20284;DHT22;10301;50.832;4.080;2023-04-03T01:38:22;3.10;95.20
20284;DHT22;10301;50.832;4.080;2023-04-03T01:40:48;3.10;95.30
20284;DHT22;10301;50.832;4.080;2023-04-03T01:43:13;3.20;95.50
20284;DHT22;10301;50.832;4.080;2023-04-03T01:45:39;3.20;94.90
20284;DHT22;10301;50.832;4.080;2023-04-03T01:48:05;3.30;94.60
20284;DHT22;10301;50.832;4.080;2023-04-03T01:50:31;3.30;94.10
20284;DHT22;10301;50.832;4.080;2023-04-03T01:52:56;3.30;94.00
20284;DHT22;10301;50.832;4.080;2023-04-03T01:55:22;3.20;94.10
20284;DHT22;10301;50.832;4.080;2023-04-03T01:57:48;3.10;94.40
20284;DHT22;10301;50.832;4.080;2023-04-03T02:00:14;3.30;94.60
20284;DHT22;10301;50.832;4.080;2023-04-03T02:02:40;3.30;93.80
20284;DHT22;10301;50.832;4.080;2023-04-03T02:05:06;3.30;93.50
20284;DHT22;10301;50.832;4.080;2023-04-03T02:07:32;3.10;93.70
20284;DHT22;10301;50.832;4.080;2023-04-03T02:09:57;3.00;94.40
20284;DHT22;10301;50.832;4.080;2023-04-03T02:12:23;3.10;94.40
20284;DHT22;10301;50.832;4.080;2023-04-03T02:14:48;3.00;94.70
20284;DHT22;10301;50.832;4.080;2023-04-03T02:17:14;2.90;95.10
20284;DHT22;10301;50.832;4.080;2023-04-03T02:19:40;2.90;95.50
20284;DHT22;10301;50.832;4.080;2023-04-03T02:22:06;2.90;95.40
20284;DHT22;10301;50.832;4.080;2023-04-03T02:24:32;3.00;95.30
20284;DHT22;10301;50.832;4.080;2023-04-03T02:26:57;2.80;94.60
20284;DHT22;10301;50.832;4.080;2023-04-03T02:29:23;2.70;96.10
20284;DHT22;10301;50.832;4.080;2023-04-03T02:31:49;2.60;96.60
20284;DHT22;10301;50.832;4.080;2023-04-03T02:34:15;2.60;96.90
20284;DHT22;10301;50.832;4.080;2023-04-03T02:36:41;2.70;97.30
20284;DHT22;10301;50.832;4.080;2023-04-03T02:39:07;2.80;96.40
20284;DHT22;10301;50.832;4.080;2023-04-03T02:41:32;2.70;96.10
20284;DHT22;10301;50.832;4.080;2023-04-03T02:44:02;2.80;96.30
20284;DHT22;10301;50.832;4.080;2023-04-03T02:46:28;2.70;95.70
20284;DHT22;10301;50.832;4.080;2023-04-03T02:48:54;2.70;96.10
20284;DHT22;10301;50.832;4.080;2023-04-03T02:51:19;2.70;95.40
20284;DHT22;10301;50.832;4.080;2023-04-03T02:53:45;2.70;95.40
20284;DHT22;10301;50.832;4.080;2023-04-03T02:56:11;2.70;95.50
20284;DHT22;10301;50.832;4.080;2023-04-03T02:58:36;2.70;95.50
20284;DHT22;10301;50.832;4.080;2023-04-03T03:01:02;2.70;95.30
20284;DHT22;10301;50.832;4.080;2023-04-03T03:03:28;2.70;95.30
20284;DHT22;10301;50.832;4.080;2023-04-03T03:06:11;2.80;94.90
20284;DHT22;10301;50.832;4.080;2023-04-03T03:08:37;2.90;94.50
20284;DHT22;10301;50.832;4.080;2023-04-03T03:11:04;2.90;93.50
20284;DHT22;10301;50.832;4.080;2023-04-03T03:13:30;2.90;92.60
20284;DHT22;10301;50.832;4.080;2023-04-03T03:15:56;2.90;93.00
20284;DHT22;10301;50.832;4.080;2023-04-03T03:18:22;3.00;93.00
20284;DHT22;10301;50.832;4.080;2023-04-03T03:20:56;3.00;92.40
20284;DHT22;10301;50.832;4.080;2023-04-03T03:23:23;2.90;92.10
20284;DHT22;10301;50.832;4.080;2023-04-03T03:26:04;2.90;92.10
20284;DHT22;10301;50.832;4.080;2023-04-03T03:28:31;2.70;92.60
20284;DHT22;10301;50.832;4.080;2023-04-03T03:30:57;2.70;92.70
20284;DHT22;10301;50.832;4.080;2023-04-03T03:33:23;2.70;92.70
20284;DHT22;10301;50.832;4.080;2023-04-03T03:35:49;2.80;92.70
20284;DHT22;10301;50.832;4.080;2023-04-03T03:38:15;2.80;92.10
20284;DHT22;10301;50.832;4.080;2023-04-03T03:40:41;2.70;92.10
20284;DHT22;10301;50.832;4.080;2023-04-03T03:43:07;2.60;92.30
20284;DHT22;10301;50.832;4.080;2023-04-03T03:45:32;2.60;92.80
20284;DHT22;10301;50.832;4.080;2023-04-03T03:47:58;2.80;92.70
20284;DHT22;10301;50.832;4.080;2023-04-03T03:50:24;2.80;91.70
20284;DHT22;10301;50.832;4.080;2023-04-03T03:52:49;2.70;91.70
20284;DHT22;10301;50.832;4.080;2023-04-03T03:55:15;2.80;91.30
20284;DHT22;10301;50.832;4.080;2023-04-03T03:57:41;2.80;90.20
20284;DHT22;10301;50.832;4.080;2023-04-03T04:00:07;2.70;90.60
20284;DHT22;10301;50.832;4.080;2023-04-03T04:02:34;2.80;91.00
20284;DHT22;10301;50.832;4.080;2023-04-03T04:04:59;2.90;89.40
20284;DHT22;10301;50.832;4.080;2023-04-03T04:07:25;2.80;88.10
20284;DHT22;10301;50.832;4.080;2023-04-03T04:09:53;2.70;89.30
20284;DHT22;10301;50.832;4.080;2023-04-03T04:12:19;2.80;90.00
20284;DHT22;10301;50.832;4.080;2023-04-03T04:14:45;2.70;87.60
20284;DHT22;10301;50.832;4.080;2023-04-03T04:17:12;2.80;89.90
20284;DHT22;10301;50.832;4.080;2023-04-03T04:19:38;2.60;89.30
20284;DHT22;10301;50.832;4.080;2023-04-03T04:22:04;2.60;90.40
20284;DHT22;10301;50.832;4.080;2023-04-03T04:24:29;2.60;91.10
20284;DHT22;10301;50.832;4.080;2023-04-03T04:26:55;2.60;91.30
20284;DHT22;10301;50.832;4.080;2023-04-03T04:29:21;2.50;90.80
20284;DHT22;10301;50.832;4.080;2023-04-03T04:31:47;2.50;91.40
20284;DHT22;10301;50.832;4.080;2023-04-03T04:34:12;2.50;91.10
20284;DHT22;10301;50.832;4.080;2023-04-03T04:36:38;2.60;91.50
20284;DHT22;10301;50.832;4.080;2023-04-03T04:39:05;2.60;91.10
20284;DHT22;10301;50.832;4.080;2023-04-03T04:41:31;2.60;90.70
20284;DHT22;10301;50.832;4.080;2023-04-03T04:43:57;2.60;91.20
20284;DHT22;10301;50.832;4.080;2023-04-03T04:46:22;2.50;90.40
20284;DHT22;10301;50.832;4.080;2023-04-03T04:48:48;2.40;91.40
20284;DHT22;10301;50.832;4.080;2023-04-03T04:51:14;2.40;92.50
20284;DHT22;10301;50.832;4.080;2023-04-03T04:53:40;2.40;93.20
20284;DHT22;10301;50.832;4.080;2023-04-03T04:56:06;2.50;92.70
20284;DHT22;10301;50.832;4.080;2023-04-03T04:58:32;2.60;91.70
20284;DHT22;10301;50.832;4.080;2023-04-03T05:00:59;2.50;91.20
20284;DHT22;10301;50.832;4.080;2023-04-03T05:03:25;2.60;91.30
20284;DHT22;10301;50.832;4.080;2023-04-03T05:05:51;2.50;91.30
20284;DHT22;10301;50.832;4.080;2023-04-03T05:08:16;2.50;91.10
20284;DHT22;10301;50.832;4.080;2023-04-03T05:10:42;2.60;91.30
20284;DHT22;10301;50.832;4.080;2023-04-03T05:13:08;2.60;91.10
20284;DHT22;10301;50.832;4.080;2023-04-03T05:15:33;2.60;90.90
20284;DHT22;10301;50.832;4.080;2023-04-03T05:17:59;2.50;90.30
20284;DHT22;10301;50.832;4.080;2023-04-03T05:20:25;2.50;91.60
20284;DHT22;10301;50.832;4.080;2023-04-03T05:22:50;2.40;92.30
20284;DHT22;10301;50.832;4.080;2023-04-03T05:25:16;2.50;91.60
20284;DHT22;10301;50.832;4.080;2023-04-03T05:27:42;2.50;91.30
20284;DHT22;10301;50.832;4.080;2023-04-03T05:30:08;2.50;91.20
20284;DHT22;10301;50.832;4.080;2023-04-03T05:32:33;2.50;90.40
20284;DHT22;10301;50.832;4.080;2023-04-03T05:34:59;2.50;90.80
20284;DHT22;10301;50.832;4.080;2023-04-03T05:37:25;2.50;91.20
20284;DHT22;10301;50.832;4.080;2023-04-03T05:39:50;2.60;91.40
20284;DHT22;10301;50.832;4.080;2023-04-03T05:42:16;2.70;91.40
20284;DHT22;10301;50.832;4.080;2023-04-03T05:44:42;2.70;90.70
20284;DHT22;10301;50.832;4.080;2023-04-03T05:47:08;2.70;90.40
20284;DHT22;10301;50.832;4.080;2023-04-03T05:49:34;2.80;90.00
20284;DHT22;10301;50.832;4.080;2023-04-03T05:52:01;2.80;89.00
20284;DHT22;10301;50.832;4.080;2023-04-03T05:54:28;2.80;90.00
20284;DHT22;10301;50.832;4.080;2023-04-03T05:56:54;2.80;90.70
20284;DHT22;10301;50.832;4.080;2023-04-03T05:59:20;2.80;90.40
20284;DHT22;10301;50.832;4.080;2023-04-03T06:01:46;2.60;90.70
20284;DHT22;10301;50.832;4.080;2023-04-03T06:04:13;2.60;92.80
20284;DHT22;10301;50.832;4.080;2023-04-03T06:09:11;2.80;92.30
20284;DHT22;10301;50.832;4.080;2023-04-03T06:11:37;2.80;92.60
20284;DHT22;10301;50.832;4.080;2023-04-03T06:14:03;3.00;91.60
20284;DHT22;10301;50.832;4.080;2023-04-03T06:16:28;3.10;91.20
20284;DHT22;10301;50.832;4.080;2023-04-03T06:18:54;3.10;90.30
20284;DHT22;10301;50.832;4.080;2023-04-03T06:21:21;3.10;90.30
20284;DHT22;10301;50.832;4.080;2023-04-03T06:23:47;3.20;89.50
20284;DHT22;10301;50.832;4.080;2023-04-03T06:26:12;3.20;89.00
20284;DHT22;10301;50.832;4.080;2023-04-03T06:28:38;3.10;88.50
20284;DHT22;10301;50.832;4.080;2023-04-03T06:31:04;3.20;90.20
20284;DHT22;10301;50.832;4.080;2023-04-03T06:33:29;3.20;89.40
20284;DHT22;10301;50.832;4.080;2023-04-03T06:35:59;3.20;89.50
20284;DHT22;10301;50.832;4.080;2023-04-03T06:38:25;3.20;89.50
20284;DHT22;10301;50.832;4.080;2023-04-03T06:40:51;3.20;90.20
20284;DHT22;10301;50.832;4.080;2023-04-03T06:43:17;3.30;90.20
20284;DHT22;10301;50.832;4.080;2023-04-03T06:45:43;3.30;90.00
20284;DHT22;10301;50.832;4.080;2023-04-03T06:48:08;3.50;88.30
20284;DHT22;10301;50.832;4.080;2023-04-03T06:50:34;3.50;86.90
20284;DHT22;10301;50.832;4.080;2023-04-03T06:53:00;3.60;85.30
20284;DHT22;10301;50.832;4.080;2023-04-03T06:55:26;3.50;83.20
20284;DHT22;10301;50.832;4.080;2023-04-03T06:57:52;3.50;83.30
20284;DHT22;10301;50.832;4.080;2023-04-03T07:00:18;3.40;84.80
20284;DHT22;10301;50.832;4.080;2023-04-03T07:02:44;3.40;87.20
20284;DHT22;10301;50.832;4.080;2023-04-03T07:05:10;3.50;87.00
20284;DHT22;10301;50.832;4.080;2023-04-03T07:07:37;3.60;84.30
20284;DHT22;10301;50.832;4.080;2023-04-03T07:10:03;3.70;84.00
20284;DHT22;10301;50.832;4.080;2023-04-03T07:12:29;3.70;81.40
20284;DHT22;10301;50.832;4.080;2023-04-03T07:14:55;3.80;81.10
20284;DHT22;10301;50.832;4.080;2023-04-03T07:17:20;3.90;81.30
20284;DHT22;10301;50.832;4.080;2023-04-03T07:19:46;4.10;83.40
20284;DHT22;10301;50.832;4.080;2023-04-03T07:22:12;4.30;80.80
20284;DHT22;10301;50.832;4.080;2023-04-03T07:24:37;4.30;73.90
20284;DHT22;10301;50.832;4.080;2023-04-03T07:27:03;4.50;75.20
20284;DHT22;10301;50.832;4.080;2023-04-03T07:29:29;4.40;71.80
20284;DHT22;10301;50.832;4.080;2023-04-03T07:31:55;4.50;75.10
20284;DHT22;10301;50.832;4.080;2023-04-03T07:34:22;4.50;73.90
20284;DHT22;10301;50.832;4.080;2023-04-03T07:36:47;4.60;75.40
20284;DHT22;10301;50.832;4.080;2023-04-03T07:39:14;4.80;71.90
20284;DHT22;10301;50.832;4.080;2023-04-03T07:41:40;4.80;64.70
20284;DHT22;10301;50.832;4.080;2023-04-03T07:44:05;4.90;64.60
20284;DHT22;10301;50.832;4.080;2023-04-03T07:46:32;4.90;61.40
20284;DHT22;10301;50.832;4.080;2023-04-03T07:48:57;4.90;61.90
20284;DHT22;10301;50.832;4.080;2023-04-03T07:51:23;4.80;66.60
20284;DHT22;10301;50.832;4.080;2023-04-03T07:53:50;4.90;67.50
20284;DHT22;10301;50.832;4.080;2023-04-03T07:56:16;4.90;69.90
20284;DHT22;10301;50.832;4.080;2023-04-03T07:58:42;5.10;69.10
20284;DHT22;10301;50.832;4.080;2023-04-03T08:01:09;5.00;68.10
20284;DHT22;10301;50.832;4.080;2023-04-03T08:03:34;5.00;65.70
20284;DHT22;10301;50.832;4.080;2023-04-03T08:06:03;5.00;62.50
20284;DHT22;10301;50.832;4.080;2023-04-03T08:08:30;5.20;63.60
20284;DHT22;10301;50.832;4.080;2023-04-03T08:10:58;5.30;60.20
20284;DHT22;10301;50.832;4.080;2023-04-03T08:13:25;5.50;59.00
20284;DHT22;10301;50.832;4.080;2023-04-03T08:15:50;5.40;54.40
20284;DHT22;10301;50.832;4.080;2023-04-03T08:18:17;5.30;54.00
20284;DHT22;10301;50.832;4.080;2023-04-03T08:20:43;5.30;56.20
20284;DHT22;10301;50.832;4.080;2023-04-03T08:23:10;5.40;52.00
20284;DHT22;10301;50.832;4.080;2023-04-03T08:25:40;5.50;52.40
20284;DHT22;10301;50.832;4.080;2023-04-03T08:28:06;5.70;51.50
20284;DHT22;10301;50.832;4.080;2023-04-03T08:30:33;5.80;50.40
20284;DHT22;10301;50.832;4.080;2023-04-03T08:33:01;5.90;47.00
20284;DHT22;10301;50.832;4.080;2023-04-03T08:35:27;5.90;46.00
20284;DHT22;10301;50.832;4.080;2023-04-03T08:37:52;5.90;39.80
20284;DHT22;10301;50.832;4.080;2023-04-03T08:40:18;6.10;44.30
20284;DHT22;10301;50.832;4.080;2023-04-03T08:45:45;6.40;36.70
20284;DHT22;10301;50.832;4.080;2023-04-03T08:48:19;6.40;26.40
20284;DHT22;10301;50.832;4.080;2023-04-03T08:50:48;6.50;19.30
20284;DHT22;10301;50.832;4.080;2023-04-03T08:53:18;6.50;18.10
20284;DHT22;10301;50.832;4.080;2023-04-03T08:55:49;6.30;21.50
20284;DHT22;10301;50.832;4.080;2023-04-03T08:58:21;6.50;21.10
20284;DHT22;10301;50.832;4.080;2023-04-03T09:01:00;6.40;20.10
20284;DHT22;10301;50.832;4.080;2023-04-03T09:03:30;6.60;19.00
20284;DHT22;10301;50.832;4.080;2023-04-03T09:06:00;6.80;22.40
20284;DHT22;10301;50.832;4.080;2023-04-03T09:08:43;6.50;19.80
20284;DHT22;10301;50.832;4.080;2023-04-03T09:16:56;6.30;13.90
20284;DHT22;10301;50.832;4.080;2023-04-03T09:19:36;6.60;18.70
20284;DHT22;10301;50.832;4.080;2023-04-03T09:22:27;6.70;6.90
20284;DHT22;10301;50.832;4.080;2023-04-03T09:25:00;6.70;11.20
20284;DHT22;10301;50.832;4.080;2023-04-03T09:27:27;6.80;1.10
20284;DHT22;10301;50.832;4.080;2023-04-03T09:29:55;6.80;1.00
20284;DHT22;10301;50.832;4.080;2023-04-03T09:32:31;6.90;2.60
20284;DHT22;10301;50.832;4.080;2023-04-03T09:37:50;7.30;1.00
20284;DHT22;10301;50.832;4.080;2023-04-03T09:42:52;7.40;1.00
20284;DHT22;10301;50.832;4.080;2023-04-03T09:45:27;7.60;1.00
20284;DHT22;10301;50.832;4.080;2023-04-03T09:50:32;7.80;1.00
20284;DHT22;10301;50.832;4.080;2023-04-03T09:52:59;7.90;1.00
20284;DHT22;10301;50.832;4.080;2023-04-03T09:55:29;8.10;1.00
20284;DHT22;10301;50.832;4.080;2023-04-03T09:58:03;8.10;1.00
20284;DHT22;10301;50.832;4.080;2023-04-03T10:00:35;8.00;1.00
20284;DHT22;10301;50.832;4.080;2023-04-03T10:03:03;8.10;1.00
20284;DHT22;10301;50.832;4.080;2023-04-03T10:05:37;8.10;1.00
20284;DHT22;10301;50.832;4.080;2023-04-03T10:10:34;8.20;1.00
20284;DHT22;10301;50.832;4.080;2023-04-03T10:13:11;8.10;1.00
20284;DHT22;10301;50.832;4.080;2023-04-03T10:15:44;8.40;1.00
20284;DHT22;10301;50.832;4.080;2023-04-03T10:22:04;8.10;1.00
20284;DHT22;10301;50.832;4.080;2023-04-03T10:24:58;7.90;1.00
20284;DHT22;10301;50.832;4.080;2023-04-03T10:35:44;8.20;1.00
20284;DHT22;10301;50.832;4.080;2023-04-03T10:46:56;8.10;99.90
20284;DHT22;10301;50.832;4.080;2023-04-03T10:49:26;8.30;99.90
20284;DHT22;10301;50.832;4.080;2023-04-03T10:52:02;8.40;99.90
20284;DHT22;10301;50.832;4.080;2023-04-03T10:57:11;8.40;99.90
20284;DHT22;10301;50.832;4.080;2023-04-03T10:59:43;8.40;99.90
20284;DHT22;10301;50.832;4.080;2023-04-03T11:02:24;8.50;36.90
20284;DHT22;10301;50.832;4.080;2023-04-03T11:04:56;8.50;1.00
20284;DHT22;10301;50.832;4.080;2023-04-03T11:07:45;8.60;99.90
20284;DHT22;10301;50.832;4.080;2023-04-03T11:10:14;8.70;1.00
20284;DHT22;10301;50.832;4.080;2023-04-03T11:12:49;8.80;38.20
20284;DHT22;10301;50.832;4.080;2023-04-03T11:15:29;8.90;1.00
20284;DHT22;10301;50.832;4.080;2023-04-03T11:18:27;9.10;1.00
20284;DHT22;10301;50.832;4.080;2023-04-03T11:21:06;9.20;99.90
20284;DHT22;10301;50.832;4.080;2023-04-03T11:23:39;9.30;1.00
20284;DHT22;10301;50.832;4.080;2023-04-03T11:26:19;9.40;21.10
20284;DHT22;10301;50.832;4.080;2023-04-03T11:28:46;9.40;1.00
20284;DHT22;10301;50.832;4.080;2023-04-03T11:36:57;9.50;1.00
20284;DHT22;10301;50.832;4.080;2023-04-03T11:39:36;9.50;1.00
20284;DHT22;10301;50.832;4.080;2023-04-03T11:44:41;9.70;99.90
20284;DHT22;10301;50.832;4.080;2023-04-03T11:47:11;9.60;99.90
20284;DHT22;10301;50.832;4.080;2023-04-03T11:50:03;9.40;1.00
20284;DHT22;10301;50.832;4.080;2023-04-03T12:16:23;9.80;1.00
20284;DHT22;10301;50.832;4.080;2023-04-03T12:24:01;9.90;1.00
20284;DHT22;10301;50.832;4.080;2023-04-03T12:46:03;9.70;1.00
20284;DHT22;10301;50.832;4.080;2023-04-03T12:48:31;9.80;1.00
20284;DHT22;10301;50.832;4.080;2023-04-03T12:51:00;9.70;99.90
20284;DHT22;10301;50.832;4.080;2023-04-03T12:53:33;9.80;1.00
20284;DHT22;10301;50.832;4.080;2023-04-03T12:56:21;10.00;1.00
20284;DHT22;10301;50.832;4.080;2023-04-03T12:58:48;9.60;99.90
20284;DHT22;10301;50.832;4.080;2023-04-03T13:01:23;9.70;99.90
20284;DHT22;10301;50.832;4.080;2023-04-03T13:03:55;9.70;99.90
20284;DHT22;10301;50.832;4.080;2023-04-03T13:06:27;9.80;1.00
20284;DHT22;10301;50.832;4.080;2023-04-03T13:08:58;10.00;99.90
20284;DHT22;10301;50.832;4.080;2023-04-03T13:11:27;10.00;99.90
20284;DHT22;10301;50.832;4.080;2023-04-03T13:13:57;10.00;99.90
20284;DHT22;10301;50.832;4.080;2023-04-03T13:16:23;9.80;99.90
20284;DHT22;10301;50.832;4.080;2023-04-03T13:18:52;9.70;99.90
20284;DHT22;10301;50.832;4.080;2023-04-03T13:21:28;9.70;1.00
20284;DHT22;10301;50.832;4.080;2023-04-03T13:23:59;9.60;1.00
20284;DHT22;10301;50.832;4.080;2023-04-03T13:26:29;9.80;1.00
20284;DHT22;10301;50.832;4.080;2023-04-03T13:29:01;9.90;1.00
20284;DHT22;10301;50.832;4.080;2023-04-03T13:31:32;9.80;1.00
20284;DHT22;10301;50.832;4.080;2023-04-03T13:34:19;9.90;1.00
20284;DHT22;10301;50.832;4.080;2023-04-03T13:39:27;10.10;1.00
20284;DHT22;10301;50.832;4.080;2023-04-03T13:41:59;10.10;1.00
20284;DHT22;10301;50.832;4.080;2023-04-03T13:44:31;10.10;1.00
20284;DHT22;10301;50.832;4.080;2023-04-03T13:47:19;10.10;1.00
20284;DHT22;10301;50.832;4.080;2023-04-03T13:50:25;10.10;99.90
20284;DHT22;10301;50.832;4.080;2023-04-03T13:53:12;10.00;99.90
20284;DHT22;10301;50.832;4.080;2023-04-03T13:58:32;9.90;1.00
20284;DHT22;10301;50.832;4.080;2023-04-03T14:01:18;10.10;1.00
20284;DHT22;10301;50.832;4.080;2023-04-03T14:03:58;10.20;1.00
20284;DHT22;10301;50.832;4.080;2023-04-03T14:06:24;10.20;99.90
20284;DHT22;10301;50.832;4.080;2023-04-03T14:08:50;10.30;99.90
20284;DHT22;10301;50.832;4.080;2023-04-03T14:11:26;10.40;99.90
20284;DHT22;10301;50.832;4.080;2023-04-03T14:13:53;10.40;99.90
20284;DHT22;10301;50.832;4.080;2023-04-03T14:16:23;10.50;99.90
20284;DHT22;10301;50.832;4.080;2023-04-03T14:18:51;10.40;99.90
20284;DHT22;10301;50.832;4.080;2023-04-03T14:21:19;10.40;99.90
20284;DHT22;10301;50.832;4.080;2023-04-03T14:23:45;10.40;99.90
20284;DHT22;10301;50.832;4.080;2023-04-03T14:26:17;10.50;1.00
20284;DHT22;10301;50.832;4.080;2023-04-03T14:28:48;10.60;99.90
20284;DHT22;10301;50.832;4.080;2023-04-03T14:31:15;10.80;1.00
20284;DHT22;10301;50.832;4.080;2023-04-03T14:33:41;10.90;1.00
20284;DHT22;10301;50.832;4.080;2023-04-03T14:36:19;10.90;1.00
20284;DHT22;10301;50.832;4.080;2023-04-03T14:38:46;10.90;99.90
20284;DHT22;10301;50.832;4.080;2023-04-03T14:41:17;10.90;1.00
20284;DHT22;10301;50.832;4.080;2023-04-03T14:43:44;10.80;1.00
20284;DHT22;10301;50.832;4.080;2023-04-03T14:46:20;10.90;1.00
20284;DHT22;10301;50.832;4.080;2023-04-03T14:48:48;10.60;1.00
20284;DHT22;10301;50.832;4.080;2023-04-03T14:51:14;10.50;1.00
20284;DHT22;10301;50.832;4.080;2023-04-03T14:53:41;10.50;84.40
20284;DHT22;10301;50.832;4.080;2023-04-03T14:56:23;10.60;1.00
20284;DHT22;10301;50.832;4.080;2023-04-03T14:58:55;10.50;1.00
20284;DHT22;10301;50.832;4.080;2023-04-03T15:01:21;10.70;1.00
20284;DHT22;10301;50.832;4.080;2023-04-03T15:03:47;10.60;1.00
20284;DHT22;10301;50.832;4.080;2023-04-03T15:06:13;10.70;1.00
20284;DHT22;10301;50.832;4.080;2023-04-03T15:08:41;10.70;1.00
20284;DHT22;10301;50.832;4.080;2023-04-03T15:11:08;10.80;99.90
20284;DHT22;10301;50.832;4.080;2023-04-03T15:13:35;10.60;99.90
20284;DHT22;10301;50.832;4.080;2023-04-03T15:16:01;10.80;1.00
20284;DHT22;10301;50.832;4.080;2023-04-03T15:18:27;10.60;99.90
20284;DHT22;10301;50.832;4.080;2023-04-03T15:20:56;10.60;1.00
20284;DHT22;10301;50.832;4.080;2023-04-03T15:23:22;10.80;99.90
20284;DHT22;10301;50.832;4.080;2023-04-03T15:25:53;10.90;99.90
20284;DHT22;10301;50.832;4.080;2023-04-03T15:28:29;11.00;99.90
20284;DHT22;10301;50.832;4.080;2023-04-03T15:30:56;11.00;99.90
20284;DHT22;10301;50.832;4.080;2023-04-03T15:33:22;11.00;99.90
20284;DHT22;10301;50.832;4.080;2023-04-03T15:35:48;11.00;99.90
20284;DHT22;10301;50.832;4.080;2023-04-03T15:38:14;11.00;99.90
20284;DHT22;10301;50.832;4.080;2023-04-03T15:40:40;11.00;99.90
20284;DHT22;10301;50.832;4.080;2023-04-03T15:43:06;10.80;99.90
20284;DHT22;10301;50.832;4.080;2023-04-03T15:45:34;10.70;99.90
20284;DHT22;10301;50.832;4.080;2023-04-03T15:48:01;10.80;99.90
20284;DHT22;10301;50.832;4.080;2023-04-03T15:50:27;10.70;99.90
20284;DHT22;10301;50.832;4.080;2023-04-03T15:52:53;10.70;99.90
20284;DHT22;10301;50.832;4.080;2023-04-03T15:55:25;10.70;99.90
20284;DHT22;10301;50.832;4.080;2023-04-03T15:57:52;10.60;99.90
20284;DHT22;10301;50.832;4.080;2023-04-03T16:00:18;10.40;99.90
20284;DHT22;10301;50.832;4.080;2023-04-03T16:02:45;10.40;99.90
20284;DHT22;10301;50.832;4.080;2023-04-03T16:05:13;10.50;99.90
20284;DHT22;10301;50.832;4.080;2023-04-03T16:07:39;10.60;99.90
20284;DHT22;10301;50.832;4.080;2023-04-03T16:10:06;10.50;99.90
20284;DHT22;10301;50.832;4.080;2023-04-03T16:12:32;10.60;99.90
20284;DHT22;10301;50.832;4.080;2023-04-03T16:14:58;10.60;99.90
20284;DHT22;10301;50.832;4.080;2023-04-03T16:17:24;10.40;99.90
20284;DHT22;10301;50.832;4.080;2023-04-03T16:19:50;10.30;99.90
20284;DHT22;10301;50.832;4.080;2023-04-03T16:22:16;10.30;99.90
20284;DHT22;10301;50.832;4.080;2023-04-03T16:24:42;10.10;99.90
20284;DHT22;10301;50.832;4.080;2023-04-03T16:27:07;10.10;99.90
20284;DHT22;10301;50.832;4.080;2023-04-03T16:29:33;10.20;99.90
20284;DHT22;10301;50.832;4.080;2023-04-03T16:31:59;10.20;99.90
20284;DHT22;10301;50.832;4.080;2023-04-03T16:34:25;10.30;99.90
20284;DHT22;10301;50.832;4.080;2023-04-03T16:36:52;10.20;99.90
20284;DHT22;10301;50.832;4.080;2023-04-03T16:39:18;10.20;99.90
20284;DHT22;10301;50.832;4.080;2023-04-03T16:41:43;10.20;1.00
20284;DHT22;10301;50.832;4.080;2023-04-03T16:44:10;10.10;1.00
20284;DHT22;10301;50.832;4.080;2023-04-03T16:46:36;10.10;1.00
20284;DHT22;10301;50.832;4.080;2023-04-03T16:49:03;10.10;1.00
20284;DHT22;10301;50.832;4.080;2023-04-03T16:51:29;9.90;99.90
20284;DHT22;10301;50.832;4.080;2023-04-03T16:53:55;10.00;99.90
20284;DHT22;10301;50.832;4.080;2023-04-03T16:56:20;10.00;1.00
20284;DHT22;10301;50.832;4.080;2023-04-03T16:58:47;10.00;1.00
20284;DHT22;10301;50.832;4.080;2023-04-03T17:01:16;9.90;99.90
20284;DHT22;10301;50.832;4.080;2023-04-03T17:03:42;9.90;1.00
20284;DHT22;10301;50.832;4.080;2023-04-03T17:06:07;9.90;1.00
20284;DHT22;10301;50.832;4.080;2023-04-03T17:08:40;9.90;1.00
20284;DHT22;10301;50.832;4.080;2023-04-03T17:11:05;9.90;99.90
20284;DHT22;10301;50.832;4.080;2023-04-03T17:13:31;9.80;1.00
20284;DHT22;10301;50.832;4.080;2023-04-03T17:15:59;9.80;1.00
20284;DHT22;10301;50.832;4.080;2023-04-03T17:18:26;9.70;1.00
20284;DHT22;10301;50.832;4.080;2023-04-03T17:20:52;9.70;1.00
20284;DHT22;10301;50.832;4.080;2023-04-03T17:23:18;9.80;1.00
20284;DHT22;10301;50.832;4.080;2023-04-03T17:25:43;9.90;1.00
20284;DHT22;10301;50.832;4.080;2023-04-03T17:28:09;10.00;1.00
20284;DHT22;10301;50.832;4.080;2023-04-03T17:30:35;10.10;1.00
20284;DHT22;10301;50.832;4.080;2023-04-03T17:33:00;9.80;1.00
20284;DHT22;10301;50.832;4.080;2023-04-03T17:35:26;9.70;1.00
20284;DHT22;10301;50.832;4.080;2023-04-03T17:37:52;9.80;1.00
20284;DHT22;10301;50.832;4.080;2023-04-03T17:40:18;9.90;1.00
20284;DHT22;10301;50.832;4.080;2023-04-03T17:42:43;9.70;1.00
20284;DHT22;10301;50.832;4.080;2023-04-03T17:45:09;9.70;1.00
20284;DHT22;10301;50.832;4.080;2023-04-03T17:47:35;9.60;1.00
20284;DHT22;10301;50.832;4.080;2023-04-03T17:50:01;9.60;99.90
20284;DHT22;10301;50.832;4.080;2023-04-03T17:52:26;9.70;99.90